createdAt,value
2019-05-07T06:45:26.742Z,1014.21
2019-05-07T06:46:26.722Z,1014.13
2019-05-07T06:47:26.714Z,1014.14
2019-05-07T06:48:38.898Z,1014.17
2019-05-07T06:49:27.700Z,1014.13
2019-05-07T06:50:26.680Z,1014.09
2019-05-07T06:51:26.668Z,1014.12
2019-05-07T06:52:26.656Z,1014.11
2019-05-07T06:53:26.648Z,1014.06
2019-05-07T06:54:26.645Z,1014.16
2019-05-07T06:55:26.623Z,1014.10
2019-05-07T06:56:26.614Z,1014.05
2019-05-07T06:57:26.601Z,1014.09
2019-05-07T06:58:26.589Z,1014.00
2019-05-07T06:59:26.591Z,1013.99
2019-05-07T07:00:26.569Z,1014.07
2019-05-07T07:01:26.558Z,1014.06
2019-05-07T07:02:26.548Z,1014.05
2019-05-07T07:03:26.533Z,1014.10
2019-05-07T07:04:26.538Z,1014.06
2019-05-07T07:05:26.512Z,1014.04
2019-05-07T07:06:26.514Z,1014.04
2019-05-07T07:07:33.660Z,1014.00
2019-05-07T07:08:27.479Z,1014.03
2019-05-07T07:09:26.486Z,1014.01
2019-05-07T07:10:26.459Z,1013.99
2019-05-07T07:11:26.477Z,1014.07
2019-05-07T07:12:26.455Z,1013.98
2019-05-07T07:13:26.421Z,1013.99
2019-05-07T07:14:26.427Z,1013.99
2019-05-07T07:15:26.405Z,1014.05
2019-05-07T07:16:26.390Z,1014.01
2019-05-07T07:17:26.386Z,1013.98
2019-05-07T07:18:26.368Z,1013.92
2019-05-07T07:19:26.377Z,1013.97
2019-05-07T07:20:26.355Z,1013.93
2019-05-07T07:21:26.334Z,1013.94
2019-05-07T07:22:26.322Z,1013.91
2019-05-07T07:23:26.311Z,1013.89
2019-05-07T07:24:26.305Z,1013.87
2019-05-07T07:25:26.295Z,1013.91
2019-05-07T07:26:26.279Z,1013.88
2019-05-07T07:27:26.267Z,1013.85
2019-05-07T07:28:26.255Z,1013.82
2019-05-07T07:29:26.245Z,1013.83
2019-05-07T07:30:26.240Z,1013.81
2019-05-07T07:31:26.368Z,1013.80
2019-05-07T07:32:26.212Z,1013.77
2019-05-07T07:33:26.201Z,1013.83
2019-05-07T07:34:26.187Z,1013.81
2019-05-07T07:35:26.184Z,1013.78
2019-05-07T07:36:26.179Z,1013.76
2019-05-07T07:37:26.155Z,1013.80
2019-05-07T07:38:26.142Z,1013.77
2019-05-07T07:39:26.131Z,1013.83
2019-05-07T07:40:26.128Z,1013.78
2019-05-07T07:41:26.109Z,1013.77
2019-05-07T07:42:26.099Z,1013.76
2019-05-07T07:43:26.087Z,1013.78
2019-05-07T07:44:26.075Z,1013.71
2019-05-07T07:45:26.074Z,1013.74
2019-05-07T07:46:26.057Z,1013.77
2019-05-07T07:47:26.047Z,1013.74
2019-05-07T07:48:28.288Z,1013.74
2019-05-07T07:49:26.020Z,1013.69
2019-05-07T07:50:26.019Z,1013.77
2019-05-07T07:51:37.744Z,1013.71
2019-05-07T07:52:26.992Z,1013.70
2019-05-07T07:53:25.974Z,1013.77
2019-05-07T07:54:25.968Z,1013.74
2019-05-07T07:55:25.963Z,1013.66
2019-05-07T07:56:25.943Z,1013.80
2019-05-07T07:57:25.932Z,1013.75
2019-05-07T07:58:25.920Z,1013.77
2019-05-07T07:59:25.908Z,1013.72
2019-05-07T08:00:26.231Z,1013.70
2019-05-07T08:01:25.886Z,1013.76
2019-05-07T08:02:25.877Z,1013.74
2019-05-07T08:03:25.864Z,1013.68
2019-05-07T08:04:25.854Z,1013.74
2019-05-07T08:05:25.857Z,1013.74
2019-05-07T08:06:25.833Z,1013.71
2019-05-07T08:07:25.828Z,1013.65
2019-05-07T08:08:25.817Z,1013.72
2019-05-07T08:09:25.961Z,1013.66
2019-05-07T08:10:25.787Z,1013.72
2019-05-07T08:11:25.787Z,1013.70
2019-05-07T08:12:25.762Z,1013.75
2019-05-07T08:13:25.752Z,1013.71
2019-05-07T08:14:25.740Z,1013.71
2019-05-07T08:15:25.728Z,1013.73
2019-05-07T08:16:25.728Z,1013.71
2019-05-07T08:17:25.715Z,1013.70
2019-05-07T08:18:25.726Z,1013.76
2019-05-07T08:19:25.686Z,1013.73
2019-05-07T08:20:25.674Z,1013.67
2019-05-07T08:21:25.672Z,1013.68
2019-05-07T08:22:25.654Z,1013.73
2019-05-07T08:23:25.639Z,1013.70
2019-05-07T08:24:25.627Z,1013.62
2019-05-07T08:25:25.617Z,1013.69
2019-05-07T08:26:25.615Z,1013.62
2019-05-07T08:27:25.595Z,1013.63
2019-05-07T08:28:25.587Z,1013.69
2019-05-07T08:29:25.575Z,1013.64
2019-05-07T08:30:25.560Z,1013.62
2019-05-07T08:31:25.560Z,1013.58
2019-05-07T08:34:43.167Z,1013.62
2019-05-07T08:35:43.156Z,1013.57
2019-05-07T08:36:43.150Z,1013.58
2019-05-07T08:37:43.131Z,1013.56
2019-05-07T08:38:43.120Z,1013.57
2019-05-07T08:39:43.111Z,1013.58
2019-05-07T08:40:43.104Z,1013.53
2019-05-07T08:41:43.098Z,1013.57
2019-05-07T08:42:43.076Z,1013.54
2019-05-07T08:43:43.066Z,1013.52
2019-05-07T08:44:43.086Z,1013.50
2019-05-07T08:45:43.318Z,1013.53
2019-05-07T08:46:43.049Z,1013.57
2019-05-07T08:47:43.021Z,1013.47
2019-05-07T08:48:43.010Z,1013.49
2019-05-07T08:49:43.473Z,1013.45
2019-05-07T08:50:42.987Z,1013.43
2019-05-07T08:51:42.986Z,1013.47
2019-05-07T08:52:42.967Z,1013.52
2019-05-07T08:53:42.954Z,1013.46
2019-05-07T08:54:42.974Z,1013.48
2019-05-07T08:55:42.930Z,1013.44
2019-05-07T08:56:42.932Z,1013.44
2019-05-07T08:57:45.782Z,1013.44
2019-05-07T08:58:42.898Z,1013.38
2019-05-07T08:59:57.150Z,1013.45
2019-05-07T09:00:43.876Z,1013.47
2019-05-07T09:01:43.455Z,1013.47
2019-05-07T09:02:42.863Z,1013.48
2019-05-07T09:03:43.155Z,1013.40
2019-05-07T09:04:42.830Z,1013.38
2019-05-07T09:05:42.819Z,1013.41
2019-05-07T09:06:43.189Z,1013.32
2019-05-07T09:07:42.806Z,1013.34
2019-05-07T09:08:43.684Z,1013.35
2019-05-07T09:09:42.939Z,1013.38
2019-05-07T09:10:42.764Z,1013.35
2019-05-07T09:11:42.806Z,1013.33
2019-05-07T09:12:43.065Z,1013.32
2019-05-07T09:13:42.732Z,1013.29
2019-05-07T09:14:42.826Z,1013.37
2019-05-07T09:15:42.711Z,1013.27
2019-05-07T09:16:42.960Z,1013.25
2019-05-07T09:17:42.693Z,1013.27
2019-05-07T09:18:42.682Z,1013.30
2019-05-07T09:19:50.711Z,1013.30
2019-05-07T09:20:43.653Z,1013.31
2019-05-07T09:21:43.029Z,1013.29
2019-05-07T09:22:42.879Z,1013.26
2019-05-07T09:23:42.620Z,1013.29
2019-05-07T09:24:42.707Z,1013.33
2019-05-07T09:25:42.600Z,1013.37
2019-05-07T09:26:42.588Z,1013.35
2019-05-07T09:27:42.586Z,1013.35
2019-05-07T09:28:42.572Z,1013.25
2019-05-07T09:29:42.689Z,1013.30
2019-05-07T09:30:42.546Z,1013.24
2019-05-07T09:31:42.532Z,1013.26
2019-05-07T09:32:42.591Z,1013.20
2019-05-07T09:33:42.508Z,1013.22
2019-05-07T09:34:42.498Z,1013.22
2019-05-07T09:35:42.512Z,1013.22
2019-05-07T09:36:42.521Z,1013.25
2019-05-07T09:37:42.473Z,1013.31
2019-05-07T09:38:55.224Z,1013.25
2019-05-07T09:39:43.445Z,1013.09
2019-05-07T09:40:42.430Z,1013.12
2019-05-07T09:41:42.421Z,1013.14
2019-05-07T09:42:42.420Z,1013.26
2019-05-07T09:43:42.475Z,1013.34
2019-05-07T09:44:42.538Z,1013.23
2019-05-07T09:45:42.375Z,1013.16
2019-05-07T09:46:43.062Z,1013.15
2019-05-07T09:47:42.362Z,1013.12
2019-05-07T09:48:42.345Z,1013.11
2019-05-07T09:49:42.331Z,1013.13
2019-05-07T09:50:42.813Z,1013.00
2019-05-07T09:51:42.763Z,1013.04
2019-05-07T09:52:42.797Z,1013.04
2019-05-07T09:53:42.511Z,1012.96
2019-05-07T09:54:42.821Z,1012.97
2019-05-07T09:55:42.636Z,1013.11
2019-05-07T09:56:42.359Z,1012.99
2019-05-07T09:57:42.630Z,1013.01
2019-05-07T09:58:42.683Z,1013.02
2019-05-07T09:59:42.635Z,1013.00
2019-05-07T10:00:42.548Z,1012.98
2019-05-07T10:01:42.199Z,1012.95
2019-05-07T10:02:42.607Z,1012.90
2019-05-07T10:03:42.888Z,1012.97
2019-05-07T10:04:42.166Z,1012.95
2019-05-07T10:05:42.790Z,1012.97
2019-05-07T10:06:42.488Z,1013.00
2019-05-07T10:07:42.458Z,1012.89
2019-05-07T10:08:42.130Z,1013.03
2019-05-07T10:09:42.685Z,1012.91
2019-05-07T10:10:42.104Z,1012.91
2019-05-07T10:11:42.090Z,1012.86
2019-05-07T10:12:42.165Z,1012.89
2019-05-07T10:13:42.088Z,1012.89
2019-05-07T10:14:42.158Z,1012.92
2019-05-07T10:15:42.046Z,1012.87
2019-05-07T10:16:42.034Z,1012.85
2019-05-07T10:17:42.023Z,1012.91
2019-05-07T10:18:42.730Z,1012.88
2019-05-07T10:19:42.000Z,1012.85
2019-05-07T10:20:42.208Z,1012.83
2019-05-07T10:21:42.539Z,1012.89
2019-05-07T10:22:42.899Z,1012.81
2019-05-07T10:23:41.964Z,1012.79
2019-05-07T10:24:42.030Z,1012.82
2019-05-07T10:25:41.935Z,1012.81
2019-05-07T10:26:42.888Z,1012.77
2019-05-07T10:27:42.022Z,1012.80
2019-05-07T10:28:42.497Z,1012.76
2019-05-07T10:29:42.770Z,1012.79
2019-05-07T10:30:42.792Z,1012.77
2019-05-07T10:31:42.385Z,1012.76
2019-05-07T10:32:42.289Z,1012.73
2019-05-07T10:33:42.170Z,1012.82
2019-05-07T10:34:42.233Z,1012.79
2019-05-07T10:35:43.427Z,1012.81
2019-05-07T10:36:42.250Z,1012.80
2019-05-07T10:37:42.329Z,1012.77
2019-05-07T10:38:41.802Z,1012.69
2019-05-07T10:39:43.019Z,1012.80
2019-05-07T10:40:41.780Z,1012.72
2019-05-07T10:41:42.477Z,1012.73
2019-05-07T10:42:43.096Z,1012.73
2019-05-07T10:43:42.882Z,1012.72
2019-05-07T10:44:43.295Z,1012.66
2019-05-07T10:45:42.191Z,1012.61
2019-05-07T10:46:42.296Z,1012.58
2019-05-07T10:47:41.924Z,1012.62
2019-05-07T10:48:41.686Z,1012.65
2019-05-07T10:49:42.201Z,1012.60
2019-05-07T10:50:42.511Z,1012.63
2019-05-07T10:51:42.522Z,1012.59
2019-05-07T10:52:42.535Z,1012.54
2019-05-07T10:53:42.462Z,1012.48
2019-05-07T10:54:41.611Z,1012.52
2019-05-07T10:55:42.248Z,1012.49
2019-05-07T10:56:41.962Z,1012.47
2019-05-07T10:57:42.211Z,1012.55
2019-05-07T10:58:41.816Z,1012.50
2019-05-07T10:59:42.212Z,1012.44
2019-05-07T11:00:42.143Z,1012.43
2019-05-07T11:01:42.529Z,1012.42
2019-05-07T11:02:42.564Z,1012.46
2019-05-07T11:03:41.523Z,1012.44
2019-05-07T11:04:45.341Z,1012.59
2019-05-07T11:05:41.968Z,1012.58
2019-05-07T11:06:41.777Z,1012.50
2019-05-07T11:07:42.176Z,1012.69
2019-05-07T11:08:42.841Z,1012.69
2019-05-07T11:09:42.023Z,1012.66
2019-05-07T11:10:41.936Z,1012.60
2019-05-07T11:11:42.316Z,1012.64
2019-05-07T11:12:42.486Z,1012.67
2019-05-07T11:13:42.238Z,1012.28
2019-05-07T11:14:41.391Z,1012.30
2019-05-07T11:15:42.924Z,1012.18
2019-05-07T11:16:43.083Z,1012.26
2019-05-07T11:17:41.895Z,1012.21
2019-05-07T11:18:42.659Z,1012.17
2019-05-07T11:19:41.705Z,1012.15
2019-05-07T11:20:49.680Z,1012.20
2019-05-07T11:21:42.311Z,1012.20
2019-05-07T11:22:42.874Z,1012.16
2019-05-07T11:23:41.867Z,1012.15
2019-05-07T11:24:42.693Z,1012.08
2019-05-07T11:25:42.088Z,1012.13
2019-05-07T11:26:42.011Z,1012.14
2019-05-07T11:27:42.147Z,1012.07
2019-05-07T11:28:41.240Z,1012.13
2019-05-07T11:29:42.974Z,1012.09
2019-05-07T11:30:42.498Z,1012.14
2019-05-07T11:31:42.284Z,1012.09
2019-05-07T11:32:42.954Z,1012.09
2019-05-07T11:33:41.689Z,1012.02
2019-05-07T11:34:42.210Z,1012.05
2019-05-07T11:35:42.241Z,1012.04
2019-05-07T11:36:42.974Z,1011.99
2019-05-07T11:37:44.119Z,1012.04
2019-05-07T11:38:41.881Z,1012.07
2019-05-07T11:39:42.750Z,1012.09
2019-05-07T11:40:42.751Z,1012.01
2019-05-07T11:41:42.290Z,1012.02
2019-05-07T11:42:42.689Z,1011.96
2019-05-07T11:43:41.071Z,1012.04
2019-05-07T11:44:42.407Z,1012.04
2019-05-07T11:45:41.047Z,1012.02
2019-05-07T11:46:41.544Z,1011.98
2019-05-07T11:47:41.061Z,1011.99
2019-05-07T11:48:42.618Z,1012.03
2019-05-07T11:49:41.722Z,1011.94
2019-05-07T11:50:42.255Z,1011.97
2019-05-07T11:51:42.609Z,1011.95
2019-05-07T11:52:42.554Z,1011.97
2019-05-07T11:53:41.882Z,1011.97
2019-05-07T11:54:42.141Z,1011.90
2019-05-07T11:55:42.100Z,1011.89
2019-05-07T11:56:42.268Z,1011.89
2019-05-07T11:57:44.219Z,1011.91
2019-05-07T11:58:40.909Z,1011.93
2019-05-07T11:59:41.833Z,1011.88
2019-05-07T12:00:42.629Z,1011.90
2019-05-07T12:01:47.014Z,1011.92
2019-05-07T12:02:42.387Z,1011.91
2019-05-07T12:03:42.747Z,1011.91
2019-05-07T12:04:42.220Z,1011.94
2019-05-07T12:05:42.259Z,1011.89
2019-05-07T12:06:40.812Z,1011.90
2019-05-07T12:07:41.964Z,1011.90
2019-05-07T12:08:48.123Z,1011.91
2019-05-07T12:09:41.798Z,1011.96
2019-05-07T12:10:40.770Z,1011.90
2019-05-07T12:11:42.537Z,1011.93
2019-05-07T12:12:40.744Z,1011.83
2019-05-07T12:13:42.759Z,1011.84
2019-05-07T12:14:40.723Z,1011.82
2019-05-07T12:15:42.723Z,1011.87
2019-05-07T12:16:42.557Z,1011.85
2019-05-07T12:17:42.814Z,1011.88
2019-05-07T12:18:42.955Z,1011.80
2019-05-07T12:19:43.741Z,1011.78
2019-05-07T12:20:40.673Z,1011.82
2019-05-07T12:21:42.195Z,1011.82
2019-05-07T12:22:42.440Z,1011.84
2019-05-07T12:23:42.150Z,1011.76
2019-05-07T12:24:41.781Z,1011.76
2019-05-07T12:25:42.335Z,1011.74
2019-05-07T12:26:41.704Z,1011.75
2019-05-07T12:27:40.579Z,1011.70
2019-05-07T12:28:41.817Z,1011.78
2019-05-07T12:29:42.398Z,1011.87
2019-05-07T12:30:42.675Z,1011.73
2019-05-07T12:31:41.663Z,1011.76
2019-05-07T12:32:42.620Z,1011.86
2019-05-07T12:33:42.635Z,1011.80
2019-05-07T12:34:42.204Z,1011.72
2019-05-07T12:35:42.030Z,1011.58
2019-05-07T12:36:40.476Z,1011.66
2019-05-07T12:37:42.384Z,1011.56
2019-05-07T12:38:41.713Z,1011.56
2019-05-07T12:39:42.316Z,1011.53
2019-05-07T12:40:41.895Z,1011.62
2019-05-07T12:41:41.908Z,1011.58
2019-05-07T12:42:42.426Z,1011.55
2019-05-07T12:43:42.354Z,1011.49
2019-05-07T12:44:42.360Z,1011.47
2019-05-07T12:45:42.086Z,1011.51
2019-05-07T12:46:42.322Z,1011.49
2019-05-07T12:47:42.156Z,1011.53
2019-05-07T12:48:40.344Z,1011.44
2019-05-07T12:49:40.344Z,1011.45
2019-05-07T12:50:40.331Z,1011.43
2019-05-07T12:51:42.368Z,1011.48
2019-05-07T12:52:42.405Z,1011.49
2019-05-07T12:53:42.318Z,1011.43
2019-05-07T12:54:42.055Z,1011.45
2019-05-07T12:55:42.723Z,1011.47
2019-05-07T12:56:42.508Z,1011.36
2019-05-07T12:57:42.108Z,1011.42
2019-05-07T12:58:40.233Z,1011.38
2019-05-07T12:59:42.448Z,1011.41
2019-05-07T13:00:40.208Z,1011.40
2019-05-07T13:01:42.083Z,1011.45
2019-05-07T13:02:43.538Z,1011.41
2019-05-07T13:03:40.172Z,1011.38
2019-05-07T13:04:41.787Z,1011.34
2019-05-07T13:05:41.732Z,1011.35
2019-05-07T13:06:40.148Z,1011.37
2019-05-07T13:07:41.796Z,1011.37
2019-05-07T13:08:42.030Z,1011.33
2019-05-07T13:09:40.106Z,1011.31
2019-05-07T13:10:40.097Z,1011.33
2019-05-07T13:11:40.095Z,1011.37
2019-05-07T13:12:41.903Z,1011.34
2019-05-07T13:13:42.219Z,1011.32
2019-05-07T13:14:40.053Z,1011.32
2019-05-07T13:15:43.080Z,1011.27
2019-05-07T13:16:40.045Z,1011.25
2019-05-07T13:17:41.721Z,1011.23
2019-05-07T13:18:42.150Z,1011.28
2019-05-07T13:19:41.855Z,1011.22
2019-05-07T13:20:39.982Z,1011.29
2019-05-07T13:21:47.406Z,1011.28
2019-05-07T13:22:42.726Z,1011.29
2019-05-07T13:23:42.022Z,1011.31
2019-05-07T13:24:42.374Z,1011.28
2019-05-07T13:25:39.922Z,1011.22
2019-05-07T13:26:39.921Z,1011.23
2019-05-07T13:27:40.287Z,1011.20
2019-05-07T13:28:42.027Z,1011.23
2019-05-07T13:29:39.880Z,1011.27
2019-05-07T13:30:43.555Z,1011.23
2019-05-07T13:31:39.866Z,1011.16
2019-05-07T13:32:41.901Z,1011.17
2019-05-07T13:33:41.978Z,1011.19
2019-05-07T13:34:39.821Z,1011.14
2019-05-07T13:35:39.821Z,1011.10
2019-05-07T13:36:39.809Z,1011.13
2019-05-07T13:37:41.716Z,1011.09
2019-05-07T13:38:39.777Z,1011.06
2019-05-07T13:39:39.765Z,1011.09
2019-05-07T13:40:39.758Z,1011.12
2019-05-07T13:41:39.757Z,1011.08
2019-05-07T13:42:43.516Z,1011.07
2019-05-07T13:43:39.722Z,1011.08
2019-05-07T13:44:39.711Z,1011.02
2019-05-07T13:45:41.658Z,1010.95
2019-05-07T13:46:39.691Z,1010.97
2019-05-07T13:47:39.692Z,1010.99
2019-05-07T13:48:39.682Z,1010.98
2019-05-07T13:49:39.664Z,1011.00
2019-05-07T13:50:41.871Z,1010.95
2019-05-07T13:51:41.650Z,1010.95
2019-05-07T13:52:39.633Z,1010.94
2019-05-07T13:53:39.624Z,1010.97
2019-05-07T13:54:41.809Z,1010.91
2019-05-07T13:55:39.590Z,1010.89
2019-05-07T13:56:41.621Z,1010.98
2019-05-07T13:57:41.598Z,1010.87
2019-05-07T13:58:39.558Z,1010.87
2019-05-07T13:59:39.548Z,1010.88
2019-05-07T14:00:39.539Z,1010.82
2019-05-07T14:01:39.535Z,1010.83
2019-05-07T14:02:39.526Z,1010.85
2019-05-07T14:03:39.507Z,1010.86
2019-05-07T14:04:39.494Z,1010.78
2019-05-07T14:05:39.490Z,1010.84
2019-05-07T14:06:39.510Z,1010.81
2019-05-07T14:07:41.556Z,1010.79
2019-05-07T14:08:39.452Z,1010.82
2019-05-07T14:09:39.439Z,1010.80
2019-05-07T14:10:39.431Z,1010.76
2019-05-07T14:11:39.415Z,1010.77
2019-05-07T14:12:39.416Z,1010.75
2019-05-07T14:13:39.394Z,1010.74
2019-05-07T14:14:39.382Z,1010.73
2019-05-07T14:15:39.375Z,1010.77
2019-05-07T14:16:39.362Z,1010.74
2019-05-07T14:17:39.359Z,1010.76
2019-05-07T14:18:39.338Z,1010.74
2019-05-07T14:19:39.325Z,1010.80
2019-05-07T14:20:39.319Z,1010.57
2019-05-07T14:21:39.308Z,1010.53
2019-05-07T14:22:39.308Z,1010.60
2019-05-07T14:23:39.282Z,1010.59
2019-05-07T14:24:39.271Z,1010.54
2019-05-07T14:25:39.259Z,1010.62
2019-05-07T14:26:39.263Z,1010.56
2019-05-07T14:27:39.250Z,1010.61
2019-05-07T14:28:39.236Z,1010.64
2019-05-07T14:29:39.217Z,1010.58
2019-05-07T14:30:39.209Z,1010.59
2019-05-07T14:31:39.199Z,1010.60
2019-05-07T14:32:39.233Z,1010.61
2019-05-07T14:33:39.193Z,1010.56
2019-05-07T14:34:39.161Z,1010.53
2019-05-07T14:35:39.151Z,1010.53
2019-05-07T14:36:39.168Z,1010.49
2019-05-07T14:37:39.129Z,1010.54
2019-05-07T14:38:39.127Z,1010.51
2019-05-07T14:39:39.106Z,1010.53
2019-05-07T14:40:39.095Z,1010.54
2019-05-07T14:41:39.097Z,1010.52
2019-05-07T14:42:39.080Z,1010.48
2019-05-07T14:43:39.070Z,1010.46
2019-05-07T14:44:39.051Z,1010.48
2019-05-07T14:45:39.054Z,1010.48
2019-05-07T14:46:49.710Z,1010.41
2019-05-07T14:47:40.016Z,1010.45
2019-05-07T14:48:39.019Z,1010.44
2019-05-07T14:49:38.993Z,1010.35
2019-05-07T14:50:38.982Z,1010.41
2019-05-07T14:51:38.972Z,1010.41
2019-05-07T14:52:38.961Z,1010.44
2019-05-07T14:53:38.968Z,1010.36
2019-05-07T14:54:38.938Z,1010.45
2019-05-07T14:55:38.928Z,1010.40
2019-05-07T14:56:38.918Z,1010.42
2019-05-07T14:57:38.905Z,1010.38
2019-05-07T14:58:38.901Z,1010.39
2019-05-07T14:59:38.888Z,1010.35
2019-05-07T15:00:38.871Z,1010.33
2019-05-07T15:01:38.861Z,1010.36
2019-05-07T15:02:38.849Z,1010.34
2019-05-07T15:03:38.850Z,1010.39
2019-05-07T15:04:38.825Z,1010.35
2019-05-07T15:05:38.815Z,1010.38
2019-05-07T15:06:38.804Z,1010.31
2019-05-07T15:07:38.792Z,1010.31
2019-05-07T15:08:38.790Z,1010.27
2019-05-07T15:09:38.769Z,1010.27
2019-05-07T15:10:38.760Z,1010.31
2019-05-07T15:11:38.750Z,1010.26
2019-05-07T15:12:38.735Z,1010.27
2019-05-07T15:13:38.754Z,1010.29
2019-05-07T15:14:38.714Z,1010.19
2019-05-07T15:15:38.701Z,1010.27
2019-05-07T15:16:38.693Z,1010.20
2019-05-07T15:17:38.680Z,1010.26
2019-05-07T15:18:38.687Z,1010.11
2019-05-07T15:19:38.660Z,1010.20
2019-05-07T15:20:38.647Z,1010.12
2019-05-07T15:21:38.638Z,1010.13
2019-05-07T15:22:48.672Z,1010.13
2019-05-07T15:23:39.709Z,1010.11
2019-05-07T15:24:38.605Z,1010.14
2019-05-07T15:25:38.590Z,1010.11
2019-05-07T15:26:38.580Z,1010.08
2019-05-07T15:27:38.567Z,1010.11
2019-05-07T15:28:38.557Z,1010.04
2019-05-07T15:29:38.555Z,1010.09
2019-05-07T15:30:38.536Z,1010.09
2019-05-07T15:31:38.526Z,1010.08
2019-05-07T15:32:38.537Z,1010.05
2019-05-07T15:33:38.502Z,1010.02
2019-05-07T15:34:38.500Z,1009.96
2019-05-07T15:35:38.478Z,1009.96
2019-05-07T15:36:38.467Z,1010.00
2019-05-07T15:37:38.456Z,1009.94
2019-05-07T15:38:38.444Z,1009.92
2019-05-07T15:39:38.442Z,1009.96
2019-05-07T15:40:38.426Z,1009.95
2019-05-07T15:41:38.416Z,1009.93
2019-05-07T15:42:38.400Z,1009.92
2019-05-07T15:43:38.391Z,1009.90
2019-05-07T15:44:38.385Z,1009.86
2019-05-07T15:45:38.376Z,1009.90
2019-05-07T15:46:38.377Z,1009.86
2019-05-07T15:47:38.348Z,1009.84
2019-05-07T15:48:38.335Z,1009.73
2019-05-07T15:49:38.334Z,1009.76
2019-05-07T15:50:38.312Z,1009.73
2019-05-07T15:51:38.331Z,1009.74
2019-05-07T15:52:38.288Z,1009.75
2019-05-07T15:53:38.278Z,1009.71
2019-05-07T15:54:38.284Z,1009.73
2019-05-07T15:55:38.254Z,1009.71
2019-05-07T15:56:38.245Z,1009.68
2019-05-07T15:57:38.695Z,1009.67
2019-05-07T15:58:38.221Z,1009.62
2019-05-07T15:59:38.238Z,1009.69
2019-05-07T16:00:38.211Z,1009.60
2019-05-07T16:01:38.191Z,1009.60
2019-05-07T16:02:38.178Z,1009.67
2019-05-07T16:03:38.163Z,1009.65
2019-05-07T16:04:38.154Z,1009.62
2019-05-07T16:05:38.154Z,1009.57
2019-05-07T16:06:38.138Z,1009.64
2019-05-07T16:07:38.123Z,1009.64
2019-05-07T16:08:38.110Z,1009.60
2019-05-07T16:09:38.098Z,1009.61
2019-05-07T16:10:38.112Z,1009.60
2019-05-07T16:11:38.076Z,1009.58
2019-05-07T16:12:38.078Z,1009.60
2019-05-07T16:13:38.056Z,1009.52
2019-05-07T16:14:38.040Z,1009.58
2019-05-07T16:15:38.042Z,1009.56
2019-05-07T16:16:38.039Z,1009.55
2019-05-07T16:17:38.026Z,1009.49
2019-05-07T16:18:37.995Z,1009.49
2019-05-07T16:19:37.985Z,1009.50
2019-05-07T16:20:37.985Z,1009.44
2019-05-07T16:21:37.963Z,1009.47
2019-05-07T16:22:37.955Z,1009.41
2019-05-07T16:23:37.949Z,1009.42
2019-05-07T16:24:37.936Z,1009.40
2019-05-07T16:25:37.927Z,1009.40
2019-05-07T16:26:37.908Z,1009.43
2019-05-07T16:27:37.897Z,1009.44
2019-05-07T16:28:37.885Z,1009.41
2019-05-07T16:29:37.877Z,1009.44
2019-05-07T16:30:37.873Z,1009.44
2019-05-07T16:31:37.852Z,1009.39
2019-05-07T16:32:37.840Z,1009.34
2019-05-07T16:33:37.830Z,1009.43
2019-05-07T16:34:37.829Z,1009.35
2019-05-07T16:35:37.816Z,1009.34
2019-05-07T16:36:37.794Z,1009.36
2019-05-07T16:37:37.788Z,1009.33
2019-05-07T16:38:37.772Z,1009.31
2019-05-07T16:39:37.760Z,1009.32
2019-05-07T16:40:37.759Z,1009.34
2019-05-07T16:41:37.742Z,1009.30
2019-05-07T16:42:38.198Z,1009.30
2019-05-07T16:43:37.719Z,1009.28
2019-05-07T16:44:37.726Z,1009.25
2019-05-07T16:45:37.709Z,1009.25
2019-05-07T16:46:37.691Z,1009.27
2019-05-07T16:47:37.671Z,1009.22
2019-05-07T16:48:37.672Z,1009.19
2019-05-07T16:49:37.663Z,1009.17
2019-05-07T16:50:37.647Z,1009.24
2019-05-07T16:51:37.626Z,1009.20
2019-05-07T16:52:37.634Z,1009.13
2019-05-07T16:53:37.605Z,1009.24
2019-05-07T16:54:37.622Z,1009.20
2019-05-07T16:55:37.597Z,1009.23
2019-05-07T16:56:37.602Z,1009.23
2019-05-07T16:57:37.563Z,1009.21
2019-05-07T16:58:37.550Z,1009.20
2019-05-07T16:59:37.567Z,1009.21
2019-05-07T17:00:37.537Z,1009.24
2019-05-07T17:01:37.514Z,1009.18
2019-05-07T17:02:37.506Z,1009.19
2019-05-07T17:03:37.496Z,1009.20
2019-05-07T17:04:37.492Z,1009.18
2019-05-07T17:05:37.486Z,1009.20
2019-05-07T17:06:37.460Z,1009.14
2019-05-07T17:07:37.462Z,1009.09
2019-05-07T17:08:37.439Z,1009.06
2019-05-07T17:09:37.428Z,1009.13
2019-05-07T17:10:37.416Z,1009.09
2019-05-07T17:11:37.430Z,1009.10
2019-05-07T17:12:37.395Z,1009.12
2019-05-07T17:13:37.388Z,1009.16
2019-05-07T17:14:37.397Z,1009.16
2019-05-07T17:15:37.358Z,1009.15
2019-05-07T17:16:37.359Z,1009.15
2019-05-07T17:17:37.348Z,1009.08
2019-05-07T17:18:37.333Z,1009.12
2019-05-07T17:19:37.354Z,1009.09
2019-05-07T17:20:37.308Z,1009.04
2019-05-07T17:21:37.301Z,1009.11
2019-05-07T17:22:37.282Z,1009.07
2019-05-07T17:23:44.154Z,1009.10
2019-05-07T17:24:38.258Z,1009.05
2019-05-07T17:25:37.252Z,1009.08
2019-05-07T17:26:37.259Z,1009.04
2019-05-07T17:27:37.228Z,1009.06
2019-05-07T17:28:37.213Z,1009.04
2019-05-07T17:29:37.211Z,1009.08
2019-05-07T17:30:37.758Z,1009.11
2019-05-07T17:31:37.189Z,1009.11
2019-05-07T17:32:37.170Z,1009.12
2019-05-07T17:33:37.158Z,1009.04
2019-05-07T17:34:37.160Z,1009.10
2019-05-07T17:35:37.135Z,1009.07
2019-05-07T17:36:37.141Z,1009.07
2019-05-07T17:37:37.114Z,1009.05
2019-05-07T17:38:37.102Z,1009.04
2019-05-07T17:39:37.091Z,1009.04
2019-05-07T17:40:37.087Z,1008.97
2019-05-07T17:41:37.083Z,1009.04
2019-05-07T17:42:37.059Z,1009.04
2019-05-07T17:43:37.049Z,1009.03
2019-05-07T17:44:37.043Z,1009.04
2019-05-07T17:45:37.023Z,1009.02
2019-05-07T17:46:37.023Z,1009.02
2019-05-07T17:47:37.009Z,1009.00
2019-05-07T17:48:36.999Z,1009.03
2019-05-07T17:49:36.982Z,1009.05
2019-05-07T17:50:36.971Z,1009.05
2019-05-07T17:51:36.986Z,1008.99
2019-05-07T17:52:36.951Z,1008.99
2019-05-07T17:53:36.938Z,1009.01
2019-05-07T17:54:36.934Z,1009.01
2019-05-07T17:55:36.918Z,1008.99
2019-05-07T17:56:36.912Z,1008.94
2019-05-07T17:57:36.896Z,1008.92
2019-05-07T17:58:36.883Z,1008.92
2019-05-07T17:59:36.871Z,1008.92
2019-05-07T18:00:36.865Z,1008.90
2019-05-07T18:01:36.866Z,1008.91
2019-05-07T18:02:36.837Z,1008.92
2019-05-07T18:03:36.826Z,1008.90
2019-05-07T18:04:50.482Z,1008.90
2019-05-07T18:05:37.800Z,1008.87
2019-05-07T18:06:36.802Z,1008.89
2019-05-07T18:07:36.939Z,1008.94
2019-05-07T18:08:36.784Z,1008.97
2019-05-07T18:09:36.759Z,1008.88
2019-05-07T18:10:36.747Z,1008.87
2019-05-07T18:11:36.736Z,1008.91
2019-05-07T18:12:36.741Z,1008.86
2019-05-07T18:13:36.713Z,1008.86
2019-05-07T18:14:36.711Z,1008.84
2019-05-07T18:15:36.689Z,1008.83
2019-05-07T18:16:36.677Z,1008.88
2019-05-07T18:17:36.679Z,1008.86
2019-05-07T18:18:36.656Z,1008.84
2019-05-07T18:19:36.646Z,1008.88
2019-05-07T18:20:36.648Z,1008.91
2019-05-07T18:21:36.630Z,1008.90
2019-05-07T18:22:36.621Z,1008.86
2019-05-07T18:23:36.601Z,1008.88
2019-05-07T18:24:36.599Z,1008.82
2019-05-07T18:25:36.592Z,1008.82
2019-05-07T18:26:36.575Z,1008.80
2019-05-07T18:27:36.574Z,1008.80
2019-05-07T18:28:36.562Z,1008.81
2019-05-07T18:29:36.537Z,1008.75
2019-05-07T18:30:36.523Z,1008.80
2019-05-07T18:31:36.535Z,1008.80
2019-05-07T18:32:36.510Z,1008.79
2019-05-07T18:33:36.488Z,1008.79
2019-05-07T18:34:36.491Z,1008.77
2019-05-07T18:35:36.467Z,1008.72
2019-05-07T18:36:36.469Z,1008.75
2019-05-07T18:37:36.480Z,1008.79
2019-05-07T18:38:36.432Z,1008.73
2019-05-07T18:39:36.441Z,1008.79
2019-05-07T18:40:36.412Z,1008.74
2019-05-07T18:41:36.400Z,1008.74
2019-05-07T18:42:36.401Z,1008.71
2019-05-07T18:43:36.377Z,1008.72
2019-05-07T18:44:36.371Z,1008.68
2019-05-07T18:45:36.377Z,1008.68
2019-05-07T18:46:36.347Z,1008.72
2019-05-07T18:47:36.353Z,1008.67
2019-05-07T18:48:36.320Z,1008.69
2019-05-07T18:49:36.311Z,1008.62
2019-05-07T18:50:36.301Z,1008.64
2019-05-07T18:51:36.321Z,1008.62
2019-05-07T18:52:36.310Z,1008.56